Aérodrome :
LOGIN :

S'inscrire | Disclaimer

   EN    FR    IT 

 










Légende :    VFR   VFR Marginal   IFR   IFR Intensif   IFR Très Intensif
Visi : 
Plafond : 
>= 8 km
>= 3000ft
5 à 8 km
1000 à 3000 ft
1500m à 5 km
500 à 1000 ft
800 à 1500m
200 à 500 ft
< 800m
< 200 ft
Symboles :   Orages  Brouillard  Fortes neiges  Fortes précipitations  Vent > 20 kt
SIGMETs :   Divers  Orages  Givrage  Turbulence  Onde Orograph.  Cendres Volcan.







- Altitude de l'aérodrome : 885 ft
- Code IATA : BAS
- Voir les cartes d'approche


LFSB - Bale-Mulhouse

DERNIER METAR :
  • 171100Z 24007KT 180V280 9999 FEW046CB SCT230 30/15 Q1015 NOSIG

METARs EXPIRÉS :
  • 171030Z 26006KT 200V320 9999 FEW046CB SCT230 30/15 Q1016 NOSIG
  • 171000Z 26006KT 180V320 9999 FEW046TCU SCT230 29/15 Q1016 NOSIG
  • 170930Z 27006KT 220V300 9999 FEW043 SCT230 28/15 Q1016 NOSIG
  • 170900Z 27007KT 220V320 9999 FEW040 SCT230 28/16 Q1016 NOSIG
  • 170830Z 18004KT 110V230 9999 FEW040 SCT230 26/15 Q1016 NOSIG

TAF AMD TAF LFSB
Valide du 17 à 07h jusqu'au 18 à 06h UTC


170708Z 1707/1806 17004KT CAVOK
BECMG 1708/1711 27008KT FEW050CB
TEMPO 1711/1720 26012G22KT -SHRA
PROB30
TEMPO 1714/1720 VRB15G25KT 2000 TSRA SCT040CB
Météo : +33 3 89 90 31 11
Pas de NOTAMs connus pour ce terrain.
1 SIGMET publié pour la FIR Reims (LFEE) :
 
Orages noyés dans la masse
LFEE SIGMET 2 VALID 170900/171100 LFPW
LFEE REIMS FIR/UIR EMBD TS OBS WI N4630 E00600 - N4630 E00515 - N4645 E00445 - N4715 E00530 - N4630 E00600 TOP FL360 MOV NE 15KT NC=



MET'MAP, la Météo Aéronautique d'un coup d'oeil ! - Copyright ORBIFLY Décembre 2007 - Disclaimer

ORBIFLY MET'MAP TEAM :

Programmation & Développement : Alexandra Zaïnal
Conception & Développement : Baudouin d'Aumeries
Co-Programmation & Développement : Marc-Olivier Méhu
Soutien technique & logistique : Manuel Goepfert

Contact : metmap@orbifly.com




SOURCES & CREDITS :

   NOAA